Columbiaville, New York
Current Conditions -  °F | °C
As of 7:54 AM on Friday 19 Dec 2014 (Local Time) from KPSF Reporting Station
Overcast Overcast  
Wind Chill: 13°   Ceiling: 1800
Heat Index: 26°   Visibility: 10mi
Dew Point: 20°   Wind: 17mph
Humidity: 78%   Direction: 300°WNW
Pressure: 29.93"   Gusts: 26mph
Location:  42.32°N, 73.75°W
Report Text: KPSF 191254Z AUTO 30015G23KT 10SM OVC018 M03/M07 A2993 RMK AO2 PK WND 29026/1237 SLP150 T10331067
Loading
Personal Weather Stations






























Interactive Weather Map New forecast layout! Learn more

10-Day Weather Forecast

Advertisements
Track Severe Weather on mobile